createdAt,value
2023-04-26T00:00:22.975Z,91.12
2023-04-26T00:01:22.985Z,91.27
2023-04-26T00:02:23.108Z,91.37
2023-04-26T00:03:23.132Z,91.68
2023-04-26T00:04:23.112Z,91.95
2023-04-26T00:05:23.084Z,91.89
2023-04-26T00:06:22.911Z,92.05
2023-04-26T00:07:22.928Z,92.41
2023-04-26T00:08:22.909Z,92.30
2023-04-26T00:09:22.910Z,92.41
2023-04-26T00:10:22.869Z,92.61
2023-04-26T00:11:22.977Z,92.61
2023-04-26T00:12:22.859Z,92.51
2023-04-26T00:13:22.860Z,93.24
2023-04-26T00:14:22.831Z,92.51
2023-04-26T00:15:22.801Z,92.93
2023-04-26T00:16:22.882Z,92.93
2023-04-26T00:17:22.784Z,92.72
2023-04-26T00:18:22.793Z,92.61
2023-04-26T00:19:22.792Z,92.30
2023-04-26T00:20:22.768Z,92.51
2023-04-26T00:21:22.737Z,92.72
2023-04-26T00:22:22.734Z,93.35
2023-04-26T00:23:22.748Z,93.35
2023-04-26T00:24:22.757Z,93.24
2023-04-26T00:25:22.730Z,93.10
2023-04-26T00:26:22.719Z,93.14
2023-04-26T00:27:22.683Z,93.14
2023-04-26T00:28:22.728Z,93.24
2023-04-26T00:29:22.696Z,93.45
2023-04-26T00:30:22.652Z,92.82
2023-04-26T00:31:22.648Z,93.24
2023-04-26T00:32:22.739Z,93.66
2023-04-26T00:33:22.601Z,93.97
2023-04-26T00:34:22.625Z,93.76
2023-04-26T00:35:22.579Z,93.76
2023-04-26T00:36:22.580Z,93.72
2023-04-26T00:37:22.695Z,93.72
2023-04-26T00:38:22.581Z,93.87
2023-04-26T00:39:22.541Z,93.93
2023-04-26T00:40:22.548Z,93.45
2023-04-26T00:41:22.559Z,93.93
2023-04-26T00:42:22.504Z,93.87
2023-04-26T00:43:22.572Z,93.72
2023-04-26T00:44:22.525Z,93.82
2023-04-26T00:45:22.509Z,93.87
2023-04-26T00:46:22.672Z,93.87
2023-04-26T00:47:22.456Z,93.76
2023-04-26T00:48:22.446Z,93.87
2023-04-26T00:49:22.437Z,93.97
2023-04-26T00:50:22.444Z,93.72
2023-04-26T00:51:22.428Z,93.76
2023-04-26T00:52:22.485Z,93.93
2023-04-26T00:53:22.404Z,93.87
2023-04-26T00:54:22.369Z,93.76
2023-04-26T00:55:22.389Z,93.76
2023-04-26T00:56:25.442Z,93.76
2023-04-26T00:57:22.347Z,93.87
2023-04-26T00:58:22.320Z,93.66
2023-04-26T00:59:22.356Z,93.72
2023-04-26T01:00:22.294Z,93.55
2023-04-26T01:01:22.331Z,93.87
2023-04-26T01:02:22.334Z,93.76
2023-04-26T01:03:22.487Z,93.55
2023-04-26T01:04:22.345Z,93.66
2023-04-26T01:05:22.238Z,93.97
2023-04-26T01:06:22.226Z,93.66
2023-04-26T01:07:22.233Z,93.87
2023-04-26T01:08:22.228Z,93.76
2023-04-26T01:09:22.193Z,94.28
2023-04-26T01:10:22.270Z,94.07
2023-04-26T01:11:22.166Z,94.28
2023-04-26T01:12:22.244Z,94.28
2023-04-26T01:13:22.138Z,93.76
2023-04-26T01:14:22.153Z,93.76
2023-04-26T01:15:22.143Z,93.49
2023-04-26T01:16:22.138Z,92.93
2023-04-26T01:17:22.144Z,92.97
2023-04-26T01:18:22.091Z,93.39
2023-04-26T01:19:22.084Z,92.86
2023-04-26T01:20:22.087Z,92.93
2023-04-26T01:21:22.052Z,92.86
2023-04-26T01:22:22.083Z,92.35
2023-04-26T01:23:22.029Z,92.86
2023-04-26T01:24:22.029Z,92.76
2023-04-26T01:25:22.041Z,92.97
2023-04-26T01:26:21.994Z,92.86
2023-04-26T01:27:21.985Z,92.55
2023-04-26T01:28:21.992Z,93.39
2023-04-26T01:29:21.960Z,93.07
2023-04-26T01:30:21.981Z,93.49
2023-04-26T01:31:21.968Z,92.86
2023-04-26T01:32:21.928Z,93.64
2023-04-26T01:33:21.934Z,93.80
2023-04-26T01:34:21.924Z,94.06
2023-04-26T01:35:21.906Z,93.91
2023-04-26T01:36:21.883Z,93.85
2023-04-26T01:37:21.874Z,94.26
2023-04-26T01:38:21.863Z,94.68
2023-04-26T01:39:21.861Z,94.89
2023-04-26T01:40:21.834Z,94.99
2023-04-26T01:41:21.821Z,94.89
2023-04-26T01:42:21.833Z,95.09
2023-04-26T01:43:21.802Z,95.09
2023-04-26T01:44:21.824Z,95.51
2023-04-26T01:45:21.776Z,95.30
2023-04-26T01:46:21.790Z,94.99
2023-04-26T01:47:21.809Z,94.99
2023-04-26T01:48:21.755Z,95.20
2023-04-26T01:49:21.741Z,95.30
2023-04-26T01:50:21.748Z,94.89
2023-04-26T01:51:21.728Z,95.09
2023-04-26T01:52:21.699Z,95.09
2023-04-26T01:53:21.689Z,95.09
2023-04-26T01:54:21.696Z,95.40
2023-04-26T01:55:21.662Z,94.99
2023-04-26T01:56:21.662Z,95.40
2023-04-26T01:57:21.644Z,95.45
2023-04-26T01:58:21.630Z,95.09
2023-04-26T01:59:21.636Z,95.72
2023-04-26T02:00:21.631Z,95.76
2023-04-26T02:01:21.609Z,95.51
2023-04-26T02:02:21.624Z,95.45
2023-04-26T02:03:21.699Z,95.40
2023-04-26T02:04:21.599Z,95.87
2023-04-26T02:05:21.676Z,95.40
2023-04-26T02:06:21.648Z,95.72
2023-04-26T02:07:21.525Z,95.83
2023-04-26T02:08:21.522Z,95.51
2023-04-26T02:09:21.520Z,95.62
2023-04-26T02:10:21.502Z,95.30
2023-04-26T02:11:21.527Z,95.40
2023-04-26T02:12:21.495Z,96.18
2023-04-26T02:13:21.462Z,95.40
2023-04-26T02:14:21.491Z,95.93
2023-04-26T02:15:21.442Z,96.39
2023-04-26T02:16:21.549Z,95.83
2023-04-26T02:17:21.420Z,95.30
2023-04-26T02:18:21.407Z,95.35
2023-04-26T02:19:21.420Z,95.45
2023-04-26T02:20:21.382Z,95.56
2023-04-26T02:21:21.398Z,95.56
2023-04-26T02:22:21.359Z,95.35
2023-04-26T02:23:21.363Z,95.97
2023-04-26T02:24:21.338Z,95.97
2023-04-26T02:25:21.326Z,95.97
2023-04-26T02:26:21.344Z,96.01
2023-04-26T02:27:21.357Z,95.56
2023-04-26T02:28:28.494Z,95.56
2023-04-26T02:29:43.171Z,95.45
2023-04-26T02:30:22.300Z,95.60
2023-04-26T02:31:22.860Z,95.56
2023-04-26T02:32:28.358Z,95.91
2023-04-26T02:33:28.839Z,95.50
2023-04-26T02:34:28.280Z,95.50
2023-04-26T02:35:28.312Z,95.81
2023-04-26T02:36:21.224Z,95.50
2023-04-26T02:37:28.266Z,95.81
2023-04-26T02:38:28.260Z,95.50
2023-04-26T02:39:28.247Z,95.91
2023-04-26T02:40:28.890Z,96.43
2023-04-26T02:41:21.292Z,95.66
2023-04-26T02:42:21.272Z,95.60
2023-04-26T02:43:21.216Z,95.60
2023-04-26T02:44:21.296Z,95.56
2023-04-26T02:45:21.210Z,95.76
2023-04-26T02:46:21.162Z,95.50
2023-04-26T02:47:21.091Z,95.66
2023-04-26T02:48:21.172Z,96.18
2023-04-26T02:49:21.076Z,95.35
2023-04-26T02:50:21.087Z,95.56
2023-04-26T02:51:21.039Z,95.50
2023-04-26T02:52:21.030Z,95.87
2023-04-26T02:53:28.089Z,95.91
2023-04-26T02:54:21.023Z,96.18
2023-04-26T02:55:21.009Z,96.28
2023-04-26T02:56:20.972Z,96.28
2023-04-26T02:57:20.991Z,96.08
2023-04-26T02:58:20.950Z,96.08
2023-04-26T02:59:20.936Z,96.18
2023-04-26T03:00:20.930Z,95.87
2023-04-26T03:01:20.945Z,95.87
2023-04-26T03:02:20.996Z,96.18
2023-04-26T03:03:21.088Z,95.45
2023-04-26T03:04:20.948Z,95.35
2023-04-26T03:05:20.873Z,95.35
2023-04-26T03:06:20.867Z,95.35
2023-04-26T03:07:20.854Z,95.66
2023-04-26T03:08:20.842Z,96.18
2023-04-26T03:09:20.863Z,95.45
2023-04-26T03:10:20.808Z,95.66
2023-04-26T03:11:20.802Z,95.66
2023-04-26T03:12:20.794Z,95.87
2023-04-26T03:13:20.803Z,95.66
2023-04-26T03:14:20.773Z,95.97
2023-04-26T03:15:20.761Z,95.45
2023-04-26T03:16:20.784Z,95.45
2023-04-26T03:17:20.755Z,95.83
2023-04-26T03:18:20.721Z,95.93
2023-04-26T03:19:20.722Z,96.08
2023-04-26T03:20:20.735Z,95.45
2023-04-26T03:21:20.689Z,95.45
2023-04-26T03:22:20.705Z,95.35
2023-04-26T03:23:20.661Z,95.56
2023-04-26T03:24:20.666Z,95.35
2023-04-26T03:25:20.659Z,95.62
2023-04-26T03:27:14.341Z,95.76
2023-04-26T03:28:14.339Z,95.56
2023-04-26T03:29:14.455Z,95.14
2023-04-26T03:30:14.308Z,95.35
2023-04-26T03:31:14.279Z,95.72
2023-04-26T03:32:14.413Z,95.45
2023-04-26T03:33:14.440Z,95.51
2023-04-26T03:34:14.243Z,95.76
2023-04-26T03:35:14.230Z,95.97
2023-04-26T03:36:14.370Z,95.30
2023-04-26T03:37:14.216Z,94.99
2023-04-26T03:38:14.219Z,95.35
2023-04-26T03:39:14.189Z,95.35
2023-04-26T03:40:14.188Z,95.09
2023-04-26T03:41:14.220Z,95.30
2023-04-26T03:42:14.167Z,95.09
2023-04-26T03:43:14.144Z,95.20
2023-04-26T03:44:14.163Z,95.20
2023-04-26T03:45:14.117Z,95.09
2023-04-26T03:46:14.152Z,95.20
2023-04-26T03:47:14.097Z,95.25
2023-04-26T03:48:14.100Z,95.30
2023-04-26T03:49:14.080Z,95.40
2023-04-26T03:50:14.090Z,95.14
2023-04-26T03:51:14.070Z,95.25
2023-04-26T03:52:14.054Z,95.45
2023-04-26T03:53:14.041Z,95.30
2023-04-26T03:54:14.017Z,95.25
2023-04-26T03:55:14.038Z,95.25
2023-04-26T03:56:14.025Z,95.25
2023-04-26T03:57:14.008Z,95.25
2023-04-26T03:58:14.196Z,94.99
2023-04-26T03:59:13.972Z,95.09
2023-04-26T04:00:14.016Z,95.09
2023-04-26T04:01:13.963Z,95.35
2023-04-26T04:02:14.624Z,95.03
2023-04-26T04:03:14.164Z,95.45
2023-04-26T04:04:14.312Z,95.25
2023-04-26T04:05:14.120Z,95.03
2023-04-26T04:06:13.904Z,94.93
2023-04-26T04:07:13.876Z,95.25
2023-04-26T04:08:13.876Z,94.82
2023-04-26T04:09:13.875Z,95.25
2023-04-26T04:10:13.829Z,95.45
2023-04-26T04:11:13.833Z,94.82
2023-04-26T04:12:13.843Z,95.35
2023-04-26T04:13:13.801Z,95.14
2023-04-26T04:14:13.792Z,95.29
2023-04-26T04:15:13.798Z,95.14
2023-04-26T04:16:13.882Z,95.25
2023-04-26T04:17:13.777Z,95.56
2023-04-26T04:18:13.809Z,95.35
2023-04-26T04:19:13.734Z,95.25
2023-04-26T04:20:13.733Z,95.25
2023-04-26T04:21:13.718Z,95.08
2023-04-26T04:22:13.716Z,95.14
2023-04-26T04:23:13.742Z,95.29
2023-04-26T04:24:13.712Z,95.25
2023-04-26T04:25:13.671Z,95.25
2023-04-26T04:26:13.656Z,95.35
2023-04-26T04:27:13.669Z,95.14
2023-04-26T04:28:13.622Z,94.93
2023-04-26T04:29:13.636Z,95.25
2023-04-26T04:30:13.623Z,95.25
2023-04-26T04:31:13.614Z,95.35
2023-04-26T04:32:13.573Z,94.93
2023-04-26T04:33:13.580Z,95.14
2023-04-26T04:34:13.612Z,94.93
2023-04-26T04:35:13.549Z,95.14
2023-04-26T04:36:13.556Z,95.14
2023-04-26T04:37:13.521Z,95.25
2023-04-26T04:38:13.558Z,95.25
2023-04-26T04:39:13.519Z,95.03
2023-04-26T04:40:13.662Z,95.25
2023-04-26T04:41:13.521Z,95.25
2023-04-26T04:42:13.484Z,95.20
2023-04-26T04:43:13.490Z,94.93
2023-04-26T04:44:13.461Z,94.78
2023-04-26T04:45:13.470Z,95.35
2023-04-26T04:46:13.498Z,94.93
2023-04-26T04:47:13.409Z,94.89
2023-04-26T04:48:13.433Z,94.89
2023-04-26T04:49:13.391Z,94.93
2023-04-26T04:50:13.374Z,95.35
2023-04-26T04:51:13.375Z,95.45
2023-04-26T04:52:13.373Z,95.35
2023-04-26T04:53:13.347Z,94.72
2023-04-26T04:54:13.332Z,94.82
2023-04-26T04:55:13.370Z,94.82
2023-04-26T04:56:13.323Z,94.26
2023-04-26T04:57:13.308Z,93.99
2023-04-26T04:58:13.283Z,94.20
2023-04-26T04:59:13.284Z,93.95
2023-04-26T05:00:13.261Z,94.82
2023-04-26T05:01:13.266Z,94.10
2023-04-26T05:02:13.492Z,94.20
2023-04-26T05:03:13.346Z,94.10
2023-04-26T05:04:13.357Z,94.93
2023-04-26T05:05:13.331Z,94.89
2023-04-26T05:06:13.209Z,94.78
2023-04-26T05:07:13.193Z,94.93
2023-04-26T05:08:13.173Z,94.47
2023-04-26T05:09:13.179Z,94.89
2023-04-26T05:10:13.186Z,94.68
2023-04-26T05:11:13.142Z,94.99
2023-04-26T05:12:13.156Z,94.99
2023-04-26T05:13:13.129Z,94.89
2023-04-26T05:14:13.124Z,95.30
2023-04-26T05:15:13.125Z,95.30
2023-04-26T05:16:13.182Z,95.09
2023-04-26T05:17:13.093Z,94.82
2023-04-26T05:18:13.092Z,94.78
2023-04-26T05:19:13.076Z,95.09
2023-04-26T05:20:13.036Z,94.78
2023-04-26T05:21:13.053Z,94.62
2023-04-26T05:22:13.036Z,94.78
2023-04-26T05:23:13.031Z,94.93
2023-04-26T05:24:12.990Z,95.45
2023-04-26T05:25:12.983Z,95.09
2023-04-26T05:26:12.991Z,95.40
2023-04-26T05:27:12.961Z,95.56
2023-04-26T05:28:12.993Z,95.20
2023-04-26T05:29:12.945Z,95.30
2023-04-26T05:30:12.923Z,94.16
2023-04-26T05:31:12.978Z,93.85
2023-04-26T05:32:12.994Z,93.74
2023-04-26T05:33:12.977Z,94.06
2023-04-26T05:34:12.906Z,92.80
2023-04-26T05:35:12.905Z,93.01
2023-04-26T05:36:12.857Z,93.12
2023-04-26T05:37:12.847Z,93.85
2023-04-26T05:38:12.845Z,94.06
2023-04-26T05:39:13.925Z,93.85
2023-04-26T05:40:12.854Z,93.85
2023-04-26T05:41:12.802Z,94.06
2023-04-26T05:42:12.796Z,94.37
2023-04-26T05:43:12.785Z,93.43
2023-04-26T05:44:12.794Z,93.43
2023-04-26T05:45:12.788Z,93.54
2023-04-26T05:46:12.813Z,92.91
2023-04-26T05:47:12.736Z,92.91
2023-04-26T05:48:12.807Z,92.74
2023-04-26T05:49:12.795Z,93.23
2023-04-26T05:50:12.700Z,93.23
2023-04-26T05:51:12.691Z,93.43
2023-04-26T05:52:12.701Z,91.87
2023-04-26T05:53:12.680Z,91.50
2023-04-26T05:54:12.655Z,91.46
2023-04-26T05:55:12.640Z,92.22
2023-04-26T05:56:12.629Z,91.91
2023-04-26T05:57:12.657Z,92.02
2023-04-26T05:58:12.633Z,92.22
2023-04-26T05:59:12.614Z,92.12
2023-04-26T06:00:12.641Z,92.54
2023-04-26T06:01:12.584Z,92.02
2023-04-26T06:02:12.628Z,91.97
2023-04-26T06:03:12.902Z,92.54
2023-04-26T06:04:12.769Z,92.02
2023-04-26T06:05:12.624Z,92.02
2023-04-26T06:06:12.558Z,92.43
2023-04-26T06:07:12.508Z,92.33
2023-04-26T06:08:12.504Z,91.39
2023-04-26T06:09:12.510Z,91.50
2023-04-26T06:10:12.481Z,91.35
2023-04-26T06:11:12.482Z,92.08
2023-04-26T06:12:12.441Z,91.97
2023-04-26T06:13:12.434Z,91.46
2023-04-26T06:14:28.872Z,92.24
2023-04-26T06:15:13.416Z,91.31
2023-04-26T06:16:12.442Z,91.31
2023-04-26T06:17:12.523Z,92.03
2023-04-26T06:18:12.432Z,92.10
2023-04-26T06:19:12.389Z,91.85
2023-04-26T06:20:12.363Z,91.12
2023-04-26T06:21:12.346Z,91.02
2023-04-26T06:22:12.344Z,89.77
2023-04-26T06:23:12.321Z,90.81
2023-04-26T06:24:12.344Z,89.25
2023-04-26T06:25:12.295Z,88.69
2023-04-26T06:26:12.303Z,88.07
2023-04-26T06:27:12.298Z,88.10
2023-04-26T06:28:12.270Z,88.59
2023-04-26T06:29:12.257Z,88.62
2023-04-26T06:30:12.260Z,88.48
2023-04-26T06:31:12.284Z,88.59
2023-04-26T06:32:12.311Z,87.55
2023-04-26T06:33:12.294Z,87.24
2023-04-26T06:34:12.215Z,87.07
2023-04-26T06:35:12.186Z,87.17
2023-04-26T06:36:12.180Z,87.42
2023-04-26T06:37:12.209Z,87.63
2023-04-26T06:38:12.175Z,87.84
2023-04-26T06:39:12.140Z,88.25
2023-04-26T06:40:12.142Z,87.73
2023-04-26T06:41:12.119Z,87.94
2023-04-26T06:42:12.110Z,88.35
2023-04-26T06:43:12.120Z,88.46
2023-04-26T06:44:12.089Z,87.38
2023-04-26T06:45:12.205Z,87.07
2023-04-26T06:46:12.116Z,87.13
2023-04-26T06:47:12.092Z,87.30
2023-04-26T06:48:12.163Z,86.08
2023-04-26T06:49:12.039Z,87.10
2023-04-26T06:50:12.038Z,87.33
2023-04-26T06:51:12.014Z,84.97
2023-04-26T06:52:12.030Z,82.32
2023-04-26T06:53:12.001Z,82.95
2023-04-26T06:54:11.996Z,80.60
2023-04-26T06:55:11.966Z,80.54
2023-04-26T06:56:11.952Z,81.20
2023-04-26T06:57:11.954Z,81.40
2023-04-26T06:58:11.927Z,81.40
2023-04-26T06:59:11.922Z,81.23
2023-04-26T07:00:11.921Z,81.27
2023-04-26T07:01:11.901Z,81.89
2023-04-26T07:02:12.832Z,82.45
2023-04-26T07:03:11.990Z,82.62
2023-04-26T07:04:12.206Z,81.79
2023-04-26T07:05:11.866Z,82.51
2023-04-26T07:06:11.828Z,82.14
2023-04-26T07:07:13.403Z,81.41
2023-04-26T07:08:11.815Z,79.44
2023-04-26T07:09:11.801Z,81.16
2023-04-26T07:10:11.785Z,81.89
2023-04-26T07:11:11.804Z,81.09
2023-04-26T07:12:11.771Z,82.19
2023-04-26T07:13:11.775Z,83.33
2023-04-26T07:14:11.745Z,83.19
2023-04-26T07:15:11.736Z,81.91
2023-04-26T07:16:11.828Z,80.36
2023-04-26T07:17:12.547Z,79.26
2023-04-26T07:18:11.795Z,78.43
2023-04-26T07:19:11.691Z,78.12
2023-04-26T07:20:14.669Z,78.26
2023-04-26T07:21:11.682Z,77.95
2023-04-26T07:22:11.656Z,81.05
2023-04-26T07:23:11.663Z,79.30
2023-04-26T07:24:11.633Z,78.61
2023-04-26T07:25:11.629Z,78.44
2023-04-26T07:26:11.617Z,79.47
2023-04-26T07:27:11.610Z,80.44
2023-04-26T07:28:11.844Z,80.02
2023-04-26T07:29:11.578Z,80.23
2023-04-26T07:30:11.590Z,81.41
2023-04-26T07:31:11.568Z,81.27
2023-04-26T07:32:11.601Z,82.14
2023-04-26T07:33:11.612Z,81.27
2023-04-26T07:34:11.578Z,82.24
2023-04-26T07:35:11.514Z,81.16
2023-04-26T07:36:11.515Z,80.54
2023-04-26T07:37:11.483Z,80.71
2023-04-26T07:38:11.509Z,82.44
2023-04-26T07:39:11.483Z,82.57
2023-04-26T07:40:11.457Z,82.43
2023-04-26T07:41:11.440Z,80.94
2023-04-26T07:42:11.426Z,78.60
2023-04-26T07:43:11.459Z,76.43
2023-04-26T07:44:11.470Z,75.02
2023-04-26T07:45:11.404Z,76.98
2023-04-26T07:46:11.457Z,76.67
2023-04-26T07:47:11.371Z,75.15
2023-04-26T07:48:11.442Z,76.71
2023-04-26T07:49:11.349Z,76.74
2023-04-26T07:50:11.337Z,77.53
2023-04-26T07:51:11.322Z,77.67
2023-04-26T07:52:11.363Z,78.61
2023-04-26T07:53:11.349Z,78.71
2023-04-26T07:54:11.295Z,78.81
2023-04-26T07:55:11.337Z,78.61
2023-04-26T07:56:11.292Z,78.40
2023-04-26T07:57:11.262Z,78.71
2023-04-26T07:58:11.253Z,77.67
2023-04-26T07:59:11.261Z,78.30
2023-04-26T08:00:11.216Z,78.92
2023-04-26T08:01:11.207Z,78.33
2023-04-26T08:02:11.286Z,77.81
2023-04-26T08:03:11.300Z,77.09
2023-04-26T08:04:11.401Z,78.96
2023-04-26T08:05:11.337Z,80.05
2023-04-26T08:06:11.349Z,79.54
2023-04-26T08:07:11.173Z,78.81
2023-04-26T08:08:11.172Z,78.67
2023-04-26T08:09:11.122Z,76.57
2023-04-26T08:10:11.107Z,75.84
2023-04-26T08:11:11.125Z,76.71
2023-04-26T08:12:11.183Z,74.43
2023-04-26T08:13:11.096Z,73.81
2023-04-26T08:14:11.060Z,74.05
2023-04-26T08:15:11.050Z,74.46
2023-04-26T08:16:11.038Z,75.60
2023-04-26T08:17:11.059Z,75.09
2023-04-26T08:18:11.097Z,75.60
2023-04-26T08:19:11.018Z,75.50
2023-04-26T08:20:10.989Z,76.36
2023-04-26T08:21:10.981Z,76.74
2023-04-26T08:22:10.970Z,76.46
2023-04-26T08:23:10.976Z,76.05
2023-04-26T08:24:11.036Z,75.32
2023-04-26T08:25:10.951Z,75.57
2023-04-26T08:26:10.933Z,76.78
2023-04-26T08:27:10.918Z,75.98
2023-04-26T08:28:10.930Z,76.57
2023-04-26T08:29:10.891Z,76.05
2023-04-26T08:30:10.876Z,77.19
2023-04-26T08:31:10.890Z,77.05
2023-04-26T08:32:10.860Z,77.05
2023-04-26T08:33:10.916Z,77.78
2023-04-26T08:34:10.854Z,76.84
2023-04-26T08:35:10.845Z,75.50
2023-04-26T08:36:10.811Z,76.02
2023-04-26T08:37:10.803Z,76.74
2023-04-26T08:38:10.794Z,75.40
2023-04-26T08:39:10.773Z,75.43
2023-04-26T08:40:10.858Z,74.98
2023-04-26T08:41:10.771Z,75.26
2023-04-26T08:42:10.741Z,75.57
2023-04-26T08:43:10.740Z,76.57
2023-04-26T08:44:10.751Z,76.64
2023-04-26T08:45:10.710Z,76.67
2023-04-26T08:46:10.774Z,76.43
2023-04-26T08:47:10.707Z,73.43
2023-04-26T08:48:10.697Z,74.46
2023-04-26T08:49:10.687Z,73.64
2023-04-26T08:50:10.675Z,73.67
2023-04-26T08:51:10.662Z,72.94
2023-04-26T08:52:10.653Z,72.85
2023-04-26T08:53:10.643Z,73.39
2023-04-26T08:54:10.626Z,72.46
2023-04-26T08:55:10.620Z,71.67
2023-04-26T08:56:10.619Z,72.60
2023-04-26T08:57:12.885Z,73.74
2023-04-26T08:58:10.561Z,71.67
2023-04-26T08:59:10.570Z,73.74
2023-04-26T09:00:10.545Z,73.84
2023-04-26T09:01:10.537Z,73.67
2023-04-26T09:02:10.640Z,73.98
2023-04-26T09:03:10.568Z,73.88
2023-04-26T09:04:10.601Z,74.77
2023-04-26T09:05:10.550Z,74.88
2023-04-26T09:06:10.494Z,73.84
2023-04-26T09:07:10.463Z,74.53
2023-04-26T09:08:10.457Z,74.60
2023-04-26T09:09:10.461Z,73.71
2023-04-26T09:10:10.429Z,73.77
2023-04-26T09:11:10.419Z,73.05
2023-04-26T09:12:10.452Z,73.67
2023-04-26T09:13:10.393Z,72.94
2023-04-26T09:14:10.389Z,72.05
2023-04-26T09:15:10.382Z,72.88
2023-04-26T09:16:10.392Z,71.70
2023-04-26T09:17:10.370Z,72.43
2023-04-26T09:18:10.341Z,73.71
2023-04-26T09:19:10.329Z,73.29
2023-04-26T09:20:10.324Z,73.39
2023-04-26T09:21:10.310Z,73.71
2023-04-26T09:22:10.317Z,74.40
2023-04-26T09:23:10.307Z,74.91
2023-04-26T09:24:10.272Z,75.81
2023-04-26T09:25:10.273Z,74.36
2023-04-26T09:26:10.254Z,74.26
2023-04-26T09:27:17.299Z,73.50
2023-04-26T09:28:10.254Z,74.43
2023-04-26T09:29:10.246Z,74.50
2023-04-26T09:30:10.233Z,73.16
2023-04-26T09:31:10.245Z,69.92
2023-04-26T09:32:10.182Z,70.16
2023-04-26T09:33:10.199Z,69.85
2023-04-26T09:34:10.173Z,70.78
2023-04-26T09:35:10.175Z,70.57
2023-04-26T09:36:10.132Z,69.33
2023-04-26T09:37:10.115Z,70.67
2023-04-26T09:38:12.782Z,69.95
2023-04-26T09:39:10.098Z,70.71
2023-04-26T09:40:10.117Z,71.09
2023-04-26T09:41:10.070Z,69.43
2023-04-26T09:42:10.113Z,69.26
2023-04-26T09:43:10.084Z,69.06
2023-04-26T09:44:10.041Z,68.23
2023-04-26T09:45:10.023Z,70.92
2023-04-26T09:46:10.045Z,70.53
2023-04-26T09:47:10.091Z,70.57
2023-04-26T09:48:09.998Z,71.29
2023-04-26T09:49:09.979Z,73.15
2023-04-26T09:50:09.992Z,72.64
2023-04-26T09:51:09.972Z,72.02
2023-04-26T09:52:09.957Z,73.77
2023-04-26T09:53:09.931Z,74.15
2023-04-26T09:54:09.924Z,73.64
2023-04-26T09:55:12.650Z,73.39
2023-04-26T09:56:10.929Z,70.53
2023-04-26T09:57:09.910Z,72.50
2023-04-26T09:58:09.886Z,71.95
2023-04-26T09:59:10.073Z,71.88
2023-04-26T10:00:09.887Z,73.29
2023-04-26T10:01:09.884Z,72.57
2023-04-26T10:02:09.849Z,72.47
2023-04-26T10:03:09.980Z,71.02
2023-04-26T10:04:10.009Z,72.12
2023-04-26T10:05:09.798Z,70.57
2023-04-26T10:06:09.783Z,70.19
2023-04-26T10:07:09.791Z,69.98
2023-04-26T10:08:09.773Z,70.29
2023-04-26T10:09:09.750Z,69.88
2023-04-26T10:10:09.899Z,70.09
2023-04-26T10:11:09.727Z,70.09
2023-04-26T10:12:09.721Z,70.74
2023-04-26T10:13:09.729Z,70.43
2023-04-26T10:14:09.705Z,71.60
2023-04-26T10:15:09.703Z,72.22
2023-04-26T10:16:09.745Z,73.22
2023-04-26T10:17:09.658Z,73.02
2023-04-26T10:18:09.708Z,72.81
2023-04-26T10:19:09.633Z,74.33
2023-04-26T10:20:09.654Z,73.29
2023-04-26T10:21:09.632Z,72.98
2023-04-26T10:22:09.633Z,72.98
2023-04-26T10:23:09.592Z,73.29
2023-04-26T10:24:09.580Z,74.22
2023-04-26T10:25:09.581Z,71.22
2023-04-26T10:26:09.587Z,70.40
2023-04-26T10:27:09.560Z,70.29
2023-04-26T10:28:09.535Z,71.43
2023-04-26T10:29:09.541Z,71.22
2023-04-26T10:30:09.509Z,72.57
2023-04-26T10:31:09.663Z,70.67
2023-04-26T10:32:09.724Z,70.67
2023-04-26T10:33:09.513Z,69.92
2023-04-26T10:34:11.995Z,69.09
2023-04-26T10:35:09.466Z,68.68
2023-04-26T10:36:09.462Z,70.20
2023-04-26T10:37:09.480Z,70.61
2023-04-26T10:38:09.439Z,68.96
2023-04-26T10:39:09.435Z,68.16
2023-04-26T10:40:09.419Z,68.96
2023-04-26T10:41:09.394Z,70.06
2023-04-26T10:42:09.397Z,70.65
2023-04-26T10:43:09.382Z,68.17
2023-04-26T10:44:09.367Z,68.69
2023-04-26T10:45:09.368Z,69.38
2023-04-26T10:46:09.451Z,68.17
2023-04-26T10:47:09.355Z,67.90
2023-04-26T10:48:09.325Z,68.90
2023-04-26T10:49:09.317Z,68.07
2023-04-26T10:50:09.342Z,66.21
2023-04-26T10:51:09.281Z,68.76
2023-04-26T10:52:09.265Z,67.60
2023-04-26T10:53:09.272Z,68.18
2023-04-26T10:54:09.258Z,67.94
2023-04-26T10:55:09.264Z,69.66
2023-04-26T10:56:09.243Z,69.97
2023-04-26T10:57:09.246Z,65.75
2023-04-26T10:58:09.221Z,66.78
2023-04-26T10:59:30.662Z,67.40
2023-04-26T11:00:10.185Z,66.54
2023-04-26T11:01:09.169Z,66.13
2023-04-26T11:02:09.143Z,66.16
2023-04-26T11:03:09.436Z,64.11
2023-04-26T11:04:09.206Z,61.87
2023-04-26T11:05:09.194Z,61.49
2023-04-26T11:06:09.144Z,62.03
2023-04-26T11:07:09.108Z,63.06
2023-04-26T11:08:09.083Z,63.71
2023-04-26T11:09:09.061Z,64.22
2023-04-26T11:10:09.076Z,65.15
2023-04-26T11:11:09.115Z,63.74
2023-04-26T11:12:09.037Z,64.56
2023-04-26T11:13:09.035Z,66.52
2023-04-26T11:14:09.007Z,65.15
2023-04-26T11:15:09.043Z,64.43
2023-04-26T11:16:09.070Z,64.12
2023-04-26T11:17:08.982Z,64.95
2023-04-26T11:18:09.036Z,63.37
2023-04-26T11:19:09.020Z,62.26
2023-04-26T11:20:08.958Z,62.68
2023-04-26T11:21:08.938Z,63.15
2023-04-26T11:22:08.921Z,63.56
2023-04-26T11:23:08.922Z,65.11
2023-04-26T11:24:08.891Z,65.21
2023-04-26T11:25:08.907Z,65.11
2023-04-26T11:26:08.918Z,64.98
2023-04-26T11:27:08.855Z,66.01
2023-04-26T11:28:08.856Z,66.42
2023-04-26T11:29:08.857Z,66.80
2023-04-26T11:30:08.836Z,66.28
2023-04-26T11:31:08.889Z,65.84
2023-04-26T11:32:08.805Z,64.61
2023-04-26T11:33:08.857Z,63.68
2023-04-26T11:34:08.777Z,62.75
2023-04-26T11:35:08.826Z,61.41
2023-04-26T11:36:08.775Z,62.68
2023-04-26T11:37:08.793Z,61.85
2023-04-26T11:38:08.752Z,63.95
2023-04-26T11:39:08.752Z,63.74
2023-04-26T11:40:08.735Z,64.15
2023-04-26T11:41:08.700Z,65.08
2023-04-26T11:42:08.697Z,63.95
2023-04-26T11:43:08.695Z,64.22
2023-04-26T11:44:08.737Z,65.15
2023-04-26T11:45:08.692Z,65.67
2023-04-26T11:46:08.877Z,63.12
2023-04-26T11:47:08.769Z,64.25
2023-04-26T11:48:08.683Z,65.46
2023-04-26T11:49:08.616Z,65.08
2023-04-26T11:50:08.618Z,64.46
2023-04-26T11:51:08.673Z,66.21
2023-04-26T11:52:08.594Z,63.53
2023-04-26T11:53:08.565Z,64.87
2023-04-26T11:54:08.581Z,65.62
2023-04-26T11:55:08.556Z,65.70
2023-04-26T11:56:08.524Z,66.42
2023-04-26T11:57:08.518Z,64.15
2023-04-26T11:58:08.529Z,64.32
2023-04-26T11:59:08.493Z,65.25
2023-04-26T12:00:08.515Z,64.29
2023-04-26T12:01:08.472Z,64.84
2023-04-26T12:02:08.523Z,64.61
2023-04-26T12:03:08.688Z,64.71
2023-04-26T12:04:08.750Z,62.44
2023-04-26T12:05:08.689Z,63.40
2023-04-26T12:06:08.432Z,63.57
2023-04-26T12:07:08.729Z,63.37
2023-04-26T12:08:08.410Z,61.93
2023-04-26T12:09:08.402Z,63.78
2023-04-26T12:10:08.391Z,63.99
2023-04-26T12:11:08.362Z,63.00
2023-04-26T12:12:08.389Z,65.03
2023-04-26T12:13:08.333Z,62.56
2023-04-26T12:14:08.319Z,62.02
2023-04-26T12:15:08.311Z,60.58
2023-04-26T12:16:22.340Z,60.47
2023-04-26T12:17:09.333Z,58.31
2023-04-26T12:18:08.276Z,56.80
2023-04-26T12:19:08.291Z,58.58
2023-04-26T12:20:08.272Z,61.46
2023-04-26T12:21:08.316Z,60.74
2023-04-26T12:22:08.266Z,63.07
2023-04-26T12:23:08.243Z,59.55
2023-04-26T12:24:08.220Z,61.37
2023-04-26T12:25:08.218Z,63.64
2023-04-26T12:26:08.197Z,63.17
2023-04-26T12:27:08.197Z,60.39
2023-04-26T12:28:08.166Z,60.57
2023-04-26T12:29:08.173Z,61.46
2023-04-26T12:30:08.193Z,60.77
2023-04-26T12:31:08.143Z,61.16
2023-04-26T12:32:08.306Z,58.41
2023-04-26T12:33:16.940Z,60.26
2023-04-26T12:34:09.121Z,57.31
2023-04-26T12:35:08.087Z,59.77
2023-04-26T12:36:08.091Z,58.36
2023-04-26T12:37:08.061Z,60.01
2023-04-26T12:38:08.069Z,58.16
2023-04-26T12:39:08.117Z,57.75
2023-04-26T12:40:08.030Z,59.91
2023-04-26T12:41:08.036Z,60.24
2023-04-26T12:42:08.040Z,61.19
2023-04-26T12:43:08.002Z,59.34
2023-04-26T12:44:08.016Z,61.30
2023-04-26T12:45:07.989Z,60.06
2023-04-26T12:46:08.064Z,62.02
2023-04-26T12:47:07.971Z,61.37
2023-04-26T12:48:07.991Z,60.75
2023-04-26T12:49:07.930Z,61.24
2023-04-26T12:50:07.910Z,61.14
2023-04-26T12:51:07.915Z,64.12
2023-04-26T12:52:07.919Z,62.34
2023-04-26T12:53:07.879Z,61.21